createdAt,value
2017-05-31T00:00:42.923Z,28.43
2017-05-31T00:01:43.210Z,28.54
2017-05-31T00:02:42.986Z,28.48
2017-05-31T00:03:43.014Z,28.52
2017-05-31T00:04:43.046Z,28.49
2017-05-31T00:05:43.080Z,28.52
2017-05-31T00:06:42.996Z,28.41
2017-05-31T00:07:42.825Z,28.49
2017-05-31T00:08:42.543Z,28.51
2017-05-31T00:09:43.191Z,28.46
2017-05-31T00:10:42.921Z,28.4
2017-05-31T00:11:43.465Z,28.4
2017-05-31T00:12:42.662Z,28.4
2017-05-31T00:13:43.323Z,28.43
2017-05-31T00:14:43.043Z,28.36
2017-05-31T00:15:43.381Z,28.39
2017-05-31T00:16:43.040Z,28.46
2017-05-31T00:17:43.433Z,28.34
2017-05-31T00:18:43.159Z,28.36
2017-05-31T00:19:43.507Z,28.41
2017-05-31T00:20:43.529Z,28.43
2017-05-31T00:21:43.761Z,28.36
2017-05-31T00:22:43.594Z,28.4
2017-05-31T00:23:43.007Z,28.39
2017-05-31T00:24:43.661Z,28.37
2017-05-31T00:25:43.693Z,28.33
2017-05-31T00:26:43.974Z,28.33
2017-05-31T00:27:43.430Z,28.36
2017-05-31T00:28:43.471Z,28.3
2017-05-31T00:29:43.492Z,28.4
2017-05-31T00:30:43.833Z,28.44
2017-05-31T00:31:44.068Z,28.34
2017-05-31T00:32:43.899Z,28.37
2017-05-31T00:33:43.927Z,28.4
2017-05-31T00:34:43.959Z,28.37
2017-05-31T00:35:43.990Z,28.41
2017-05-31T00:36:44.214Z,28.41
2017-05-31T00:37:44.049Z,28.37
2017-05-31T00:38:44.076Z,28.41
2017-05-31T00:39:44.107Z,28.39
2017-05-31T00:40:43.837Z,28.37
2017-05-31T00:41:44.377Z,28.41
2017-05-31T00:42:44.195Z,28.4
2017-05-31T00:43:44.235Z,28.37
2017-05-31T00:44:44.272Z,28.43
2017-05-31T00:45:44.297Z,28.4
2017-05-31T00:46:44.520Z,28.36
2017-05-31T00:47:44.355Z,28.34
2017-05-31T00:48:44.068Z,28.33
2017-05-31T00:49:44.416Z,28.37
2017-05-31T00:50:44.441Z,28.36
2017-05-31T00:51:44.414Z,28.33
2017-05-31T00:52:44.192Z,28.43
2017-05-31T00:53:44.539Z,28.37
2017-05-31T00:54:44.253Z,28.4
2017-05-31T00:55:43.976Z,28.36
2017-05-31T00:56:44.565Z,28.27
2017-05-31T00:57:44.334Z,28.31
2017-05-31T00:58:44.380Z,28.3
2017-05-31T00:59:44.404Z,28.33
2017-05-31T01:00:44.745Z,28.29
2017-05-31T01:01:44.973Z,28.27
2017-05-31T01:02:44.807Z,28.37
2017-05-31T01:03:44.836Z,28.29
2017-05-31T01:04:44.868Z,28.31
2017-05-31T01:05:44.913Z,28.3
2017-05-31T01:06:44.310Z,28.34
2017-05-31T01:07:44.965Z,28.31
2017-05-31T01:08:44.993Z,28.31
2017-05-31T01:09:45.024Z,28.27
2017-05-31T01:10:45.045Z,28.31
2017-05-31T01:11:44.774Z,28.29
2017-05-31T01:12:45.116Z,28.36
2017-05-31T01:13:44.830Z,28.31
2017-05-31T01:14:44.856Z,28.25
2017-05-31T01:15:45.206Z,28.27
2017-05-31T01:16:44.927Z,28.33
2017-05-31T01:17:45.267Z,28.33
2017-05-31T01:18:45.301Z,28.37
2017-05-31T01:19:45.329Z,28.24
2017-05-31T01:20:45.357Z,28.34
2017-05-31T01:21:45.075Z,28.29
2017-05-31T01:22:45.106Z,28.39
2017-05-31T01:23:45.444Z,28.37
2017-05-31T01:24:45.481Z,28.31
2017-05-31T01:25:45.514Z,28.21
2017-05-31T01:26:45.539Z,28.22
2017-05-31T01:27:45.571Z,28.34
2017-05-31T01:28:45.599Z,28.33
2017-05-31T01:29:45.325Z,28.19
2017-05-31T01:30:45.660Z,28.29
2017-05-31T01:31:45.686Z,28.27
2017-05-31T01:32:45.715Z,28.3
2017-05-31T01:33:45.747Z,28.21
2017-05-31T01:34:45.465Z,28.22
2017-05-31T01:35:45.809Z,28.21
2017-05-31T01:36:45.530Z,28.19
2017-05-31T01:37:45.873Z,28.22
2017-05-31T01:38:45.591Z,28.25
2017-05-31T01:39:45.933Z,28.21
2017-05-31T01:40:45.966Z,28.22
2017-05-31T01:41:45.995Z,28.24
2017-05-31T01:42:46.026Z,28.24
2017-05-31T01:43:45.744Z,28.27
2017-05-31T01:44:45.452Z,28.21
2017-05-31T01:45:45.798Z,28.22
2017-05-31T01:46:46.143Z,28.24
2017-05-31T01:47:46.172Z,28.21
2017-05-31T01:48:46.205Z,28.19
2017-05-31T01:49:46.237Z,28.22
2017-05-31T01:50:46.266Z,28.25
2017-05-31T01:51:46.298Z,28.17
2017-05-31T01:52:46.327Z,28.19
2017-05-31T01:53:46.357Z,28.22
2017-05-31T01:54:46.073Z,28.27
2017-05-31T01:55:46.414Z,28.12
2017-05-31T01:56:46.448Z,28.18
2017-05-31T01:57:46.481Z,28.21
2017-05-31T01:58:46.509Z,28.17
2017-05-31T01:59:46.528Z,28.22
2017-05-31T02:00:46.568Z,28.18
2017-05-31T02:01:46.601Z,28.24
2017-05-31T02:02:46.620Z,28.18
2017-05-31T02:03:46.341Z,28.19
2017-05-31T02:04:46.378Z,28.18
2017-05-31T02:05:46.722Z,28.17
2017-05-31T02:06:46.753Z,28.18
2017-05-31T02:07:46.780Z,28.17
2017-05-31T02:08:46.497Z,28.18
2017-05-31T02:09:46.849Z,28.14
2017-05-31T02:10:46.871Z,28.15
2017-05-31T02:11:46.903Z,28.17
2017-05-31T02:12:47.127Z,28.14
2017-05-31T02:13:47.020Z,28.17
2017-05-31T02:14:46.678Z,28.17
2017-05-31T02:15:47.019Z,28.17
2017-05-31T02:16:46.739Z,28.11
2017-05-31T02:17:47.280Z,28.17
2017-05-31T02:18:46.487Z,28.17
2017-05-31T02:19:47.142Z,28.17
2017-05-31T02:20:46.868Z,28.14
2017-05-31T02:21:46.895Z,28.17
2017-05-31T02:22:47.432Z,28.09
2017-05-31T02:23:46.952Z,28.14
2017-05-31T02:24:47.300Z,28.11
2017-05-31T02:25:47.327Z,28.11
2017-05-31T02:26:47.361Z,28.11
2017-05-31T02:27:47.645Z,28.09
2017-05-31T02:28:47.418Z,28.19
2017-05-31T02:29:47.441Z,28.15
2017-05-31T02:30:47.479Z,28.18
2017-05-31T02:31:47.507Z,28.11
2017-05-31T02:32:47.424Z,28.07
2017-05-31T02:33:47.576Z,28.11
2017-05-31T02:34:47.594Z,28.11
2017-05-31T02:35:47.631Z,28.11
2017-05-31T02:36:47.658Z,28.06
2017-05-31T02:37:47.884Z,28.06
2017-05-31T02:38:47.713Z,28.09
2017-05-31T02:39:47.758Z,28.07
2017-05-31T02:40:47.471Z,28.07
2017-05-31T02:41:47.502Z,28.15
2017-05-31T02:42:47.780Z,28.02
2017-05-31T02:43:47.554Z,28.07
2017-05-31T02:44:47.586Z,28.06
2017-05-31T02:45:47.311Z,28.06
2017-05-31T02:46:47.652Z,28.03
2017-05-31T02:47:48.189Z,28.07
2017-05-31T02:48:47.709Z,28.06
2017-05-31T02:49:48.042Z,28.07
2017-05-31T02:50:47.760Z,28.06
2017-05-31T02:51:47.489Z,28.03
2017-05-31T02:52:48.337Z,28.07
2017-05-31T02:53:47.853Z,28.12
2017-05-31T02:54:47.891Z,28.07
2017-05-31T02:55:48.227Z,28.06
2017-05-31T02:56:47.948Z,27.99
2017-05-31T02:57:48.184Z,27.93
2017-05-31T02:58:48.005Z,28.06
2017-05-31T02:59:48.042Z,28.06
2017-05-31T03:00:48.393Z,27.99
2017-05-31T03:01:48.468Z,28.07
2017-05-31T03:02:48.640Z,28.02
2017-05-31T03:03:48.166Z,28.04
2017-05-31T03:04:48.506Z,28.03
2017-05-31T03:05:48.231Z,27.99
2017-05-31T03:06:48.253Z,27.97
2017-05-31T03:07:48.789Z,27.93
2017-05-31T03:08:48.626Z,27.92
2017-05-31T03:09:48.650Z,28.02
2017-05-31T03:10:48.368Z,27.99
2017-05-31T03:11:48.717Z,27.93
2017-05-31T03:12:48.944Z,28.02
2017-05-31T03:13:48.461Z,27.96
2017-05-31T03:14:48.486Z,27.99
2017-05-31T03:15:48.524Z,27.94
2017-05-31T03:16:48.865Z,27.96
2017-05-31T03:17:48.584Z,28
2017-05-31T03:18:48.927Z,28.02
2017-05-31T03:19:48.959Z,27.97
2017-05-31T03:20:48.992Z,27.99
2017-05-31T03:21:48.696Z,27.96
2017-05-31T03:22:49.044Z,27.97
2017-05-31T03:23:49.075Z,27.96
2017-05-31T03:24:48.796Z,27.97
2017-05-31T03:25:49.131Z,27.97
2017-05-31T03:26:49.163Z,28.02
2017-05-31T03:27:49.205Z,27.96
2017-05-31T03:28:48.917Z,28.02
2017-05-31T03:29:49.255Z,27.96
2017-05-31T03:30:48.973Z,27.97
2017-05-31T03:31:49.312Z,27.99
2017-05-31T03:32:49.345Z,27.99
2017-05-31T03:33:49.371Z,28.02
2017-05-31T03:34:49.091Z,28.02
2017-05-31T03:35:49.120Z,27.97
2017-05-31T03:36:49.148Z,28.02
2017-05-31T03:37:49.492Z,27.96
2017-05-31T03:38:49.527Z,27.97
2017-05-31T03:39:49.255Z,27.94
2017-05-31T03:40:49.272Z,28.02
2017-05-31T03:41:49.614Z,27.85
2017-05-31T03:42:49.642Z,28
2017-05-31T03:43:49.674Z,27.99
2017-05-31T03:44:49.707Z,27.93
2017-05-31T03:45:49.741Z,27.9
2017-05-31T03:46:49.464Z,27.99
2017-05-31T03:47:49.482Z,27.9
2017-05-31T03:48:49.513Z,27.85
2017-05-31T03:49:49.855Z,27.88
2017-05-31T03:50:49.573Z,27.97
2017-05-31T03:51:49.604Z,27.88
2017-05-31T03:52:49.949Z,27.85
2017-05-31T03:53:49.977Z,27.9
2017-05-31T03:54:49.695Z,27.85
2017-05-31T03:55:50.040Z,27.92
2017-05-31T03:56:50.065Z,27.96
2017-05-31T03:57:50.098Z,27.92
2017-05-31T03:58:50.019Z,27.92
2017-05-31T03:59:49.847Z,27.87
2017-05-31T04:00:50.193Z,27.88
2017-05-31T04:01:50.219Z,27.88
2017-05-31T04:02:50.250Z,27.87
2017-05-31T04:03:50.165Z,27.92
2017-05-31T04:04:49.991Z,27.92
2017-05-31T04:05:50.028Z,27.82
2017-05-31T04:06:50.366Z,27.9
2017-05-31T04:07:50.402Z,27.82
2017-05-31T04:08:50.000Z,27.88
2017-05-31T04:09:50.458Z,27.88
2017-05-31T04:10:50.488Z,27.78
2017-05-31T04:11:50.214Z,27.79
2017-05-31T04:12:50.547Z,27.79
2017-05-31T04:13:50.146Z,27.9
2017-05-31T04:14:50.612Z,27.87
2017-05-31T04:15:50.332Z,27.9
2017-05-31T04:16:50.662Z,27.88
2017-05-31T04:17:50.694Z,27.84
2017-05-31T04:18:50.923Z,27.9
2017-05-31T04:19:50.446Z,27.79
2017-05-31T04:20:50.476Z,27.84
2017-05-31T04:21:50.821Z,27.82
2017-05-31T04:22:50.537Z,27.84
2017-05-31T04:23:50.767Z,27.85
2017-05-31T04:24:50.596Z,27.79
2017-05-31T04:25:50.940Z,27.82
2017-05-31T04:26:50.651Z,27.84
2017-05-31T04:27:51.001Z,27.84
2017-05-31T04:28:51.232Z,27.78
2017-05-31T04:29:51.060Z,27.78
2017-05-31T04:30:50.776Z,27.7
2017-05-31T04:31:51.125Z,27.78
2017-05-31T04:32:51.146Z,27.87
2017-05-31T04:33:51.378Z,27.87
2017-05-31T04:34:51.211Z,27.77
2017-05-31T04:35:50.926Z,27.81
2017-05-31T04:36:51.266Z,27.88
2017-05-31T04:37:51.295Z,27.84
2017-05-31T04:38:51.270Z,27.78
2017-05-31T04:39:51.043Z,27.75
2017-05-31T04:40:51.389Z,27.78
2017-05-31T04:41:51.114Z,27.78
2017-05-31T04:42:51.447Z,27.78
2017-05-31T04:43:51.680Z,27.72
2017-05-31T04:44:51.504Z,27.79
2017-05-31T04:45:52.633Z,27.78
2017-05-31T04:46:51.569Z,27.79
2017-05-31T04:47:51.282Z,27.78
2017-05-31T04:48:51.829Z,27.82
2017-05-31T04:49:51.652Z,27.81
2017-05-31T04:50:51.064Z,27.74
2017-05-31T04:51:51.714Z,27.82
2017-05-31T04:52:51.741Z,27.81
2017-05-31T04:53:51.663Z,27.75
2017-05-31T04:54:51.804Z,27.78
2017-05-31T04:55:51.841Z,27.81
2017-05-31T04:56:51.873Z,27.77
2017-05-31T04:57:51.899Z,27.75
2017-05-31T04:58:51.819Z,27.75
2017-05-31T04:59:51.965Z,27.81
2017-05-31T05:00:51.677Z,27.88
2017-05-31T05:01:51.704Z,27.74
2017-05-31T05:02:52.042Z,27.82
2017-05-31T05:03:52.280Z,27.81
2017-05-31T05:04:52.105Z,27.74
2017-05-31T05:05:51.825Z,27.78
2017-05-31T05:06:52.170Z,27.74
2017-05-31T05:07:51.886Z,27.74
2017-05-31T05:08:52.437Z,27.77
2017-05-31T05:09:51.948Z,27.77
2017-05-31T05:10:52.293Z,27.74
2017-05-31T05:11:52.314Z,27.75
2017-05-31T05:12:51.727Z,27.77
2017-05-31T05:13:52.324Z,27.75
2017-05-31T05:14:52.408Z,27.74
2017-05-31T05:15:52.436Z,27.74
2017-05-31T05:16:52.468Z,27.78
2017-05-31T05:17:52.187Z,27.77
2017-05-31T05:18:52.727Z,27.77
2017-05-31T05:19:52.560Z,27.74
2017-05-31T05:20:52.273Z,27.77
2017-05-31T05:21:52.305Z,27.79
2017-05-31T05:22:52.647Z,27.72
2017-05-31T05:23:52.883Z,27.78
2017-05-31T05:24:52.392Z,27.84
2017-05-31T05:25:52.733Z,27.75
2017-05-31T05:26:52.454Z,27.78
2017-05-31T05:27:52.797Z,27.74
2017-05-31T05:28:52.824Z,27.77
2017-05-31T05:29:52.855Z,27.78
2017-05-31T05:30:52.890Z,27.7
2017-05-31T05:31:52.917Z,27.77
2017-05-31T05:32:52.943Z,27.81
2017-05-31T05:33:52.979Z,27.67
2017-05-31T05:34:53.008Z,27.69
2017-05-31T05:35:53.038Z,27.79
2017-05-31T05:36:53.106Z,27.77
2017-05-31T05:37:53.094Z,27.75
2017-05-31T05:38:52.832Z,27.81
2017-05-31T05:39:53.157Z,27.74
2017-05-31T05:40:53.189Z,27.69
2017-05-31T05:41:53.221Z,27.75
2017-05-31T05:42:53.242Z,27.77
2017-05-31T05:43:52.967Z,27.62
2017-05-31T05:44:52.997Z,27.69
2017-05-31T05:45:53.334Z,27.77
2017-05-31T05:46:53.054Z,27.75
2017-05-31T05:47:52.798Z,27.72
2017-05-31T05:48:53.427Z,27.75
2017-05-31T05:49:53.144Z,27.75
2017-05-31T05:50:53.487Z,27.72
2017-05-31T05:51:53.206Z,27.75
2017-05-31T05:52:53.235Z,27.81
2017-05-31T05:53:53.576Z,27.74
2017-05-31T05:54:52.981Z,27.77
2017-05-31T05:55:53.322Z,27.79
2017-05-31T05:56:53.662Z,27.78
2017-05-31T05:57:53.703Z,27.78
2017-05-31T05:58:53.730Z,27.74
2017-05-31T05:59:53.460Z,27.74
2017-05-31T06:00:53.160Z,27.82
2017-05-31T06:01:53.823Z,27.78
2017-05-31T06:02:53.539Z,27.81
2017-05-31T06:03:53.872Z,27.79
2017-05-31T06:04:53.909Z,27.9
2017-05-31T06:05:53.929Z,27.82
2017-05-31T06:06:53.963Z,27.75
2017-05-31T06:07:53.992Z,27.87
2017-05-31T06:08:53.719Z,27.84
2017-05-31T06:09:54.053Z,27.85
2017-05-31T06:10:54.085Z,27.78
2017-05-31T06:11:53.807Z,27.85
2017-05-31T06:12:54.147Z,27.84
2017-05-31T06:13:54.173Z,27.81
2017-05-31T06:14:53.584Z,27.84
2017-05-31T06:15:53.925Z,27.84
2017-05-31T06:16:53.955Z,27.81
2017-05-31T06:17:53.975Z,27.84
2017-05-31T06:18:54.328Z,27.78
2017-05-31T06:19:54.355Z,27.78
2017-05-31T06:20:54.070Z,27.85
2017-05-31T06:21:54.107Z,27.87
2017-05-31T06:22:54.454Z,27.77
2017-05-31T06:23:54.164Z,27.85
2017-05-31T06:24:54.505Z,27.85
2017-05-31T06:25:54.534Z,27.84
2017-05-31T06:26:54.566Z,27.85
2017-05-31T06:27:54.601Z,27.85
2017-05-31T06:28:54.624Z,27.88
2017-05-31T06:29:54.346Z,27.88
2017-05-31T06:30:54.375Z,27.77
2017-05-31T06:31:54.091Z,27.85
2017-05-31T06:32:54.740Z,27.79
2017-05-31T06:33:54.777Z,27.74
2017-05-31T06:34:54.801Z,27.82
2017-05-31T06:35:54.835Z,27.77
2017-05-31T06:36:54.558Z,27.78
2017-05-31T06:37:54.584Z,27.77
2017-05-31T06:38:54.613Z,27.69
2017-05-31T06:39:54.954Z,27.79
2017-05-31T06:40:54.998Z,27.69
2017-05-31T06:41:55.007Z,27.75
2017-05-31T06:42:55.047Z,27.72
2017-05-31T06:43:55.080Z,27.72
2017-05-31T06:44:55.101Z,27.72
2017-05-31T06:45:55.130Z,27.78
2017-05-31T06:46:55.155Z,27.74
2017-05-31T06:47:54.568Z,27.75
2017-05-31T06:48:55.220Z,27.75
2017-05-31T06:49:55.258Z,27.77
2017-05-31T06:50:55.286Z,27.75
2017-05-31T06:51:55.316Z,27.81
2017-05-31T06:52:55.346Z,27.79
2017-05-31T06:53:55.376Z,27.79
2017-05-31T06:54:54.781Z,27.79
2017-05-31T06:55:55.495Z,27.79
2017-05-31T06:56:55.469Z,27.87
2017-05-31T06:57:55.184Z,27.78
2017-05-31T06:58:55.209Z,27.75
2017-05-31T06:59:55.554Z,27.82
2017-05-31T07:00:55.586Z,27.72
2017-05-31T07:01:55.611Z,27.77
2017-05-31T07:02:55.332Z,27.79
2017-05-31T07:03:55.361Z,27.78
2017-05-31T07:04:55.905Z,27.78
2017-05-31T07:05:55.418Z,27.81
2017-05-31T07:06:55.768Z,27.84
2017-05-31T07:07:55.797Z,27.79
2017-05-31T07:08:55.825Z,27.77
2017-05-31T07:09:56.106Z,27.77
2017-05-31T07:10:55.899Z,27.77
2017-05-31T07:11:55.599Z,27.84
2017-05-31T07:12:55.632Z,27.81
2017-05-31T07:13:55.978Z,27.79
2017-05-31T07:14:55.582Z,27.78
2017-05-31T07:15:55.723Z,27.82
2017-05-31T07:16:55.747Z,27.85
2017-05-31T07:17:55.772Z,27.82
2017-05-31T07:18:56.122Z,27.81
2017-05-31T07:19:56.353Z,27.85
2017-05-31T07:20:56.182Z,27.81
2017-05-31T07:21:56.215Z,27.87
2017-05-31T07:22:55.933Z,27.84
2017-05-31T07:23:55.970Z,27.87
2017-05-31T07:24:56.505Z,27.82
2017-05-31T07:25:56.020Z,27.82
2017-05-31T07:26:56.052Z,27.81
2017-05-31T07:27:56.397Z,27.81
2017-05-31T07:28:56.425Z,27.88
2017-05-31T07:29:56.653Z,27.79
2017-05-31T07:30:56.482Z,27.87
2017-05-31T07:31:56.520Z,27.78
2017-05-31T07:32:56.552Z,27.85
2017-05-31T07:33:56.267Z,27.82
2017-05-31T07:34:56.493Z,27.82
2017-05-31T07:35:56.626Z,27.82
2017-05-31T07:36:56.659Z,27.87
2017-05-31T07:37:56.691Z,27.84
2017-05-31T07:38:56.409Z,27.85
2017-05-31T07:39:56.638Z,27.85
2017-05-31T07:40:56.795Z,27.78
2017-05-31T07:41:56.816Z,27.88
2017-05-31T07:42:56.844Z,27.87
2017-05-31T07:43:56.560Z,27.81
2017-05-31T07:44:57.102Z,27.88
2017-05-31T07:45:56.622Z,27.81
2017-05-31T07:46:56.968Z,27.81
2017-05-31T07:47:56.997Z,27.79
2017-05-31T07:48:57.031Z,27.81
2017-05-31T07:49:57.254Z,27.88
2017-05-31T07:50:57.082Z,27.84
2017-05-31T07:51:56.804Z,27.84
2017-05-31T07:52:57.145Z,27.81
2017-05-31T07:53:57.166Z,27.81
2017-05-31T07:54:57.458Z,27.92
2017-05-31T07:55:56.938Z,27.88
2017-05-31T07:56:56.636Z,27.88
2017-05-31T07:57:56.981Z,27.79
2017-05-31T07:58:57.326Z,27.79
2017-05-31T07:59:57.597Z,27.82
2017-05-31T08:00:57.067Z,27.93
2017-05-31T08:01:57.106Z,27.92
2017-05-31T08:02:57.437Z,27.84
2017-05-31T08:03:57.469Z,27.92
2017-05-31T08:04:57.391Z,27.81
2017-05-31T08:05:57.584Z,27.87
2017-05-31T08:06:57.251Z,27.88
2017-05-31T08:07:57.592Z,27.81
2017-05-31T08:08:57.318Z,27.79
2017-05-31T08:09:57.854Z,27.84
2017-05-31T08:10:57.371Z,27.79
2017-05-31T08:11:57.716Z,27.77
2017-05-31T08:12:57.433Z,27.79
2017-05-31T08:13:57.458Z,27.9
2017-05-31T08:14:58.003Z,27.94
2017-05-31T08:15:57.835Z,27.87
2017-05-31T08:16:57.860Z,27.85
2017-05-31T08:17:57.589Z,27.84
2017-05-31T08:18:57.613Z,27.88
2017-05-31T08:19:57.523Z,27.85
2017-05-31T08:20:57.356Z,27.84
2017-05-31T08:21:57.701Z,27.88
2017-05-31T08:22:58.050Z,27.88
2017-05-31T08:23:58.075Z,27.79
2017-05-31T08:24:58.308Z,27.93
2017-05-31T08:25:58.131Z,27.94
2017-05-31T08:26:57.849Z,27.88
2017-05-31T08:27:58.189Z,27.88
2017-05-31T08:28:58.226Z,27.84
2017-05-31T08:29:58.139Z,27.94
2017-05-31T08:30:57.656Z,27.88
2017-05-31T08:31:58.313Z,27.87
2017-05-31T08:32:58.341Z,27.9
2017-05-31T08:33:58.081Z,27.85
2017-05-31T08:34:58.608Z,27.88
2017-05-31T08:35:58.444Z,27.88
2017-05-31T08:36:58.465Z,27.93
2017-05-31T08:37:58.181Z,27.93
2017-05-31T08:38:58.525Z,27.88
2017-05-31T08:39:58.747Z,27.96
2017-05-31T08:40:58.592Z,27.99
2017-05-31T08:41:58.616Z,27.87
2017-05-31T08:42:58.330Z,27.96
2017-05-31T08:43:58.664Z,28
2017-05-31T08:44:58.591Z,27.99
2017-05-31T08:45:58.429Z,27.96
2017-05-31T08:46:58.757Z,27.97
2017-05-31T08:47:58.477Z,27.99
2017-05-31T08:48:58.827Z,28.02
2017-05-31T08:49:59.058Z,28.02
2017-05-31T08:50:58.887Z,27.97
2017-05-31T08:51:58.908Z,28
2017-05-31T08:52:58.632Z,27.96
2017-05-31T08:53:58.665Z,28.02
2017-05-31T08:54:59.247Z,27.93
2017-05-31T08:55:59.034Z,27.96
2017-05-31T08:56:59.061Z,27.96
2017-05-31T08:57:59.097Z,27.96
2017-05-31T08:58:58.813Z,27.96
2017-05-31T08:59:59.087Z,28
2017-05-31T09:00:59.192Z,27.96
2017-05-31T09:01:58.905Z,28.11
2017-05-31T09:02:59.249Z,28.03
2017-05-31T09:03:59.279Z,28.04
2017-05-31T09:04:59.504Z,28.07
2017-05-31T09:05:59.333Z,28.06
2017-05-31T09:06:59.057Z,28.06
2017-05-31T09:07:59.410Z,28.12
2017-05-31T09:08:59.429Z,28.09
2017-05-31T09:09:59.654Z,28.12
2017-05-31T09:10:59.184Z,28.12
2017-05-31T09:11:59.516Z,28.11
2017-05-31T09:12:59.545Z,28.18
2017-05-31T09:13:59.264Z,28.15
2017-05-31T09:14:59.499Z,28.15
2017-05-31T09:15:59.653Z,28.21
2017-05-31T09:16:59.669Z,28.21
2017-05-31T09:17:59.698Z,28.22
2017-05-31T09:18:59.727Z,28.17
2017-05-31T09:19:59.966Z,28.24
2017-05-31T09:20:59.782Z,28.22
2017-05-31T09:21:59.821Z,28.18
2017-05-31T09:22:59.850Z,28.27
2017-05-31T09:23:59.558Z,28.27
2017-05-31T09:24:59.599Z,28.36
2017-05-31T09:25:59.936Z,28.24
2017-05-31T09:26:59.980Z,28.3
2017-05-31T09:27:59.990Z,28.3
2017-05-31T09:29:00.030Z,28.3
2017-05-31T09:30:00.059Z,28.31
2017-05-31T09:31:00.107Z,28.36
2017-05-31T09:32:00.121Z,28.29
2017-05-31T09:33:00.154Z,28.33
2017-05-31T09:34:00.183Z,28.27
2017-05-31T09:35:00.207Z,28.27
2017-05-31T09:35:59.952Z,28.33
2017-05-31T09:36:59.952Z,28.31
2017-05-31T09:38:00.302Z,28.36
2017-05-31T09:39:00.027Z,28.4
2017-05-31T09:40:00.355Z,28.37
2017-05-31T09:41:00.392Z,28.41
2017-05-31T09:42:00.107Z,28.41
2017-05-31T09:43:00.447Z,28.33
2017-05-31T09:44:00.486Z,28.39
2017-05-31T09:45:00.202Z,28.33
2017-05-31T09:46:00.224Z,28.37
2017-05-31T09:46:59.956Z,28.41
2017-05-31T09:48:00.290Z,28.39
2017-05-31T09:49:00.638Z,28.34
2017-05-31T09:50:00.352Z,28.4
2017-05-31T09:51:00.386Z,28.41
2017-05-31T09:52:00.416Z,28.43
2017-05-31T09:53:00.758Z,28.37
2017-05-31T09:54:00.474Z,28.41
2017-05-31T09:55:00.820Z,28.44
2017-05-31T09:56:00.847Z,28.44
2017-05-31T09:57:00.561Z,28.49
2017-05-31T09:58:00.910Z,28.44
2017-05-31T09:59:00.935Z,28.46
2017-05-31T10:00:00.655Z,28.41
2017-05-31T10:01:01.000Z,28.49
2017-05-31T10:02:01.029Z,28.4
2017-05-31T10:03:01.054Z,28.49
2017-05-31T10:04:01.089Z,28.54
2017-05-31T10:05:01.115Z,28.41
2017-05-31T10:06:00.839Z,28.49
2017-05-31T10:07:01.185Z,28.48
2017-05-31T10:08:01.206Z,28.41
2017-05-31T10:09:00.931Z,28.41
2017-05-31T10:10:01.272Z,28.41
2017-05-31T10:11:00.989Z,28.54
2017-05-31T10:12:01.022Z,28.4
2017-05-31T10:13:01.050Z,28.43
2017-05-31T10:14:01.399Z,28.54
2017-05-31T10:15:01.108Z,28.41
2017-05-31T10:16:01.142Z,28.48
2017-05-31T10:17:01.485Z,28.48
2017-05-31T10:18:01.518Z,28.54
2017-05-31T10:19:00.923Z,28.52
2017-05-31T10:20:01.572Z,28.49
2017-05-31T10:21:01.604Z,28.58
2017-05-31T10:22:01.633Z,28.54
2017-05-31T10:23:01.671Z,28.55
2017-05-31T10:24:01.383Z,28.51
2017-05-31T10:25:01.419Z,28.51
2017-05-31T10:26:01.761Z,28.54
2017-05-31T10:27:01.789Z,28.48
2017-05-31T10:28:01.823Z,28.51
2017-05-31T10:29:01.852Z,28.59
2017-05-31T10:30:01.876Z,28.59
2017-05-31T10:31:01.601Z,28.58
2017-05-31T10:32:01.942Z,28.59
2017-05-31T10:33:01.975Z,28.58
2017-05-31T10:34:01.996Z,28.66
2017-05-31T10:35:02.032Z,28.62
2017-05-31T10:36:02.264Z,28.66
2017-05-31T10:37:02.094Z,28.66
2017-05-31T10:38:01.819Z,28.64
2017-05-31T10:39:02.147Z,28.67
2017-05-31T10:40:02.187Z,28.67
2017-05-31T10:41:02.097Z,28.67
2017-05-31T10:42:02.241Z,28.7
2017-05-31T10:43:01.959Z,28.59
2017-05-31T10:44:02.303Z,28.67
2017-05-31T10:45:02.341Z,28.66
2017-05-31T10:46:02.573Z,28.62
2017-05-31T10:47:02.398Z,28.64
2017-05-31T10:48:02.118Z,28.66
2017-05-31T10:49:02.455Z,28.59
2017-05-31T10:50:02.492Z,28.59
2017-05-31T10:51:02.720Z,28.7
2017-05-31T10:52:02.545Z,28.58
2017-05-31T10:53:02.270Z,28.66
2017-05-31T10:54:02.611Z,28.67
2017-05-31T10:55:02.650Z,28.64
2017-05-31T10:56:02.869Z,28.64
2017-05-31T10:57:02.706Z,28.64
2017-05-31T10:58:02.425Z,28.61
2017-05-31T10:59:02.764Z,28.64
2017-05-31T11:00:02.790Z,28.73
2017-05-31T11:01:03.028Z,28.61
2017-05-31T11:02:02.858Z,28.73
2017-05-31T11:03:02.574Z,28.68
2017-05-31T11:04:02.296Z,28.61
2017-05-31T11:05:02.628Z,28.66
2017-05-31T11:06:02.873Z,28.7
2017-05-31T11:07:03.010Z,28.67
2017-05-31T11:08:03.034Z,28.73
2017-05-31T11:09:02.759Z,28.7
2017-05-31T11:10:03.104Z,28.74
2017-05-31T11:11:03.333Z,28.68
2017-05-31T11:12:03.160Z,28.71
2017-05-31T11:13:02.884Z,28.66
2017-05-31T11:14:03.215Z,28.67
2017-05-31T11:15:03.257Z,28.73
2017-05-31T11:16:03.480Z,28.64
2017-05-31T11:17:03.006Z,28.67
2017-05-31T11:18:03.343Z,28.67
2017-05-31T11:19:03.380Z,28.66
2017-05-31T11:20:03.401Z,28.7
2017-05-31T11:21:03.688Z,28.67
2017-05-31T11:22:03.150Z,28.68
2017-05-31T11:23:03.499Z,28.66
2017-05-31T11:24:03.220Z,28.71
2017-05-31T11:25:03.561Z,28.66
2017-05-31T11:26:03.478Z,28.73
2017-05-31T11:27:02.998Z,28.68
2017-05-31T11:28:03.656Z,28.73
2017-05-31T11:29:03.683Z,28.71
2017-05-31T11:30:03.715Z,28.67
2017-05-31T11:31:03.946Z,28.68
2017-05-31T11:32:03.466Z,28.7
2017-05-31T11:33:03.810Z,28.73
2017-05-31T11:34:03.535Z,28.68
2017-05-31T11:35:03.868Z,28.71
2017-05-31T11:36:04.109Z,28.67
2017-05-31T11:37:03.927Z,28.7
2017-05-31T11:38:03.962Z,28.68
2017-05-31T11:39:03.994Z,28.77
2017-05-31T11:40:04.012Z,28.76
2017-05-31T11:41:04.261Z,28.83
2017-05-31T11:42:03.773Z,28.78
2017-05-31T11:43:04.120Z,28.89
2017-05-31T11:44:04.152Z,28.89
2017-05-31T11:45:04.184Z,28.85
2017-05-31T11:46:04.466Z,28.88
2017-05-31T11:47:04.238Z,28.86
2017-05-31T11:48:04.276Z,28.9
2017-05-31T11:49:04.313Z,28.95
2017-05-31T11:50:04.337Z,28.98
2017-05-31T11:51:04.569Z,28.92
2017-05-31T11:52:04.086Z,29.04
2017-05-31T11:53:04.439Z,29.05
2017-05-31T11:54:04.459Z,29.12
2017-05-31T11:55:04.185Z,29.15
2017-05-31T11:56:04.414Z,29.21
2017-05-31T11:57:04.558Z,29.21
2017-05-31T11:58:04.596Z,29.27
2017-05-31T11:59:04.628Z,29.36
2017-05-31T12:00:04.358Z,29.39
2017-05-31T12:01:04.890Z,29.52
2017-05-31T12:02:04.728Z,29.58
2017-05-31T12:03:04.755Z,29.67
2017-05-31T12:04:04.473Z,29.8
2017-05-31T12:05:04.528Z,29.9
2017-05-31T12:06:04.740Z,30.13
2017-05-31T12:07:04.574Z,30.24
2017-05-31T12:08:04.923Z,30.35
2017-05-31T12:09:04.952Z,30.47
2017-05-31T12:10:04.988Z,30.67
2017-05-31T12:11:05.226Z,30.79
2017-05-31T12:12:05.059Z,30.88
2017-05-31T12:13:05.091Z,30.95
2017-05-31T12:14:05.135Z,31.13
2017-05-31T12:15:05.165Z,31.31
2017-05-31T12:16:05.389Z,31.39
2017-05-31T12:17:04.918Z,31.51
2017-05-31T12:18:05.270Z,31.63
2017-05-31T12:19:05.320Z,31.7
2017-05-31T12:20:05.331Z,31.86
2017-05-31T12:21:05.507Z,32.01
2017-05-31T12:22:05.092Z,32.13
2017-05-31T12:23:05.432Z,32.18
2017-05-31T12:24:04.864Z,32.35
2017-05-31T12:25:05.506Z,32.45
2017-05-31T12:26:05.426Z,32.65
2017-05-31T12:27:04.959Z,32.7
2017-05-31T12:28:05.294Z,32.84
2017-05-31T12:29:05.649Z,32.89
2017-05-31T12:30:05.681Z,33
2017-05-31T12:31:05.969Z,33.14
2017-05-31T12:32:05.756Z,33.23
2017-05-31T12:33:05.479Z,33.22
2017-05-31T12:34:05.820Z,33.29
2017-05-31T12:35:05.857Z,33.35
2017-05-31T12:36:06.093Z,33.44
2017-05-31T12:37:05.931Z,33.5
2017-05-31T12:38:05.967Z,33.59
2017-05-31T12:39:06.009Z,33.6
2017-05-31T12:40:06.040Z,33.65
2017-05-31T12:41:06.015Z,33.73
2017-05-31T12:42:06.110Z,33.73
2017-05-31T12:43:06.148Z,33.81
2017-05-31T12:44:06.181Z,33.81
2017-05-31T12:45:06.217Z,33.88
2017-05-31T12:46:06.197Z,33.91
2017-05-31T12:47:05.975Z,33.84
2017-05-31T12:48:06.325Z,33.88
2017-05-31T12:49:06.356Z,33.98
2017-05-31T12:50:06.405Z,33.9
2017-05-31T12:51:06.636Z,33.88
2017-05-31T12:52:06.466Z,33.97
2017-05-31T12:53:06.183Z,34.08
2017-05-31T12:54:06.540Z,33.98
2017-05-31T12:55:06.574Z,33.9